sensor_id;sensor_type;location;lat;lon;timestamp;pressure;altitude;pressure_sealevel;temperature;humidity
6694;BME280;3384;42.628;23.380;2022-11-20T00:01:27;93494.16;;;14.94;100.00
6694;BME280;3384;42.628;23.380;2022-11-20T00:03:56;93480.31;;;15.39;100.00
6694;BME280;3384;42.628;23.380;2022-11-20T00:06:24;93519.66;;;14.97;100.00
6694;BME280;3384;42.628;23.380;2022-11-20T00:08:54;93488.66;;;14.75;100.00
6694;BME280;3384;42.628;23.380;2022-11-20T00:11:22;93484.41;;;14.90;100.00
6694;BME280;3384;42.628;23.380;2022-11-20T00:13:51;93480.97;;;15.05;100.00
6694;BME280;3384;42.628;23.380;2022-11-20T00:16:20;93520.78;;;15.23;100.00
6694;BME280;3384;42.628;23.380;2022-11-20T00:18:47;93507.75;;;14.98;100.00
6694;BME280;3384;42.628;23.380;2022-11-20T00:21:15;93466.53;;;15.28;100.00
6694;BME280;3384;42.628;23.380;2022-11-20T00:24:02;93476.47;;;15.40;100.00
6694;BME280;3384;42.628;23.380;2022-11-20T00:26:29;93500.94;;;15.78;100.00
6694;BME280;3384;42.628;23.380;2022-11-20T00:29:00;93453.09;;;16.32;100.00
6694;BME280;3384;42.628;23.380;2022-11-20T00:31:28;93471.75;;;16.37;100.00
6694;BME280;3384;42.628;23.380;2022-11-20T00:33:55;93490.44;;;16.61;100.00
6694;BME280;3384;42.628;23.380;2022-11-20T00:36:24;93466.47;;;16.25;100.00
6694;BME280;3384;42.628;23.380;2022-11-20T00:38:51;93464.31;;;16.50;100.00
6694;BME280;3384;42.628;23.380;2022-11-20T00:41:20;93492.69;;;16.40;100.00
6694;BME280;3384;42.628;23.380;2022-11-20T00:43:47;93492.03;;;16.27;100.00
6694;BME280;3384;42.628;23.380;2022-11-20T00:46:16;93479.53;;;16.38;100.00
6694;BME280;3384;42.628;23.380;2022-11-20T00:48:43;93479.06;;;16.17;100.00
6694;BME280;3384;42.628;23.380;2022-11-20T00:51:12;93500.72;;;16.36;100.00
6694;BME280;3384;42.628;23.380;2022-11-20T00:53:39;93513.47;;;16.36;100.00
6694;BME280;3384;42.628;23.380;2022-11-20T00:56:09;93524.03;;;16.60;100.00
6694;BME280;3384;42.628;23.380;2022-11-20T00:58:42;93519.78;;;16.78;100.00
6694;BME280;3384;42.628;23.380;2022-11-20T01:01:10;93494.00;;;16.65;100.00
6694;BME280;3384;42.628;23.380;2022-11-20T01:03:39;93503.53;;;16.97;100.00
6694;BME280;3384;42.628;23.380;2022-11-20T01:06:09;93481.75;;;16.71;100.00
6694;BME280;3384;42.628;23.380;2022-11-20T01:08:39;93479.66;;;17.03;100.00
6694;BME280;3384;42.628;23.380;2022-11-20T01:11:11;93486.00;;;17.10;100.00
6694;BME280;3384;42.628;23.380;2022-11-20T01:13:38;93488.66;;;16.88;100.00
6694;BME280;3384;42.628;23.380;2022-11-20T01:16:10;93497.03;;;17.02;100.00
6694;BME280;3384;42.628;23.380;2022-11-20T01:18:42;93463.66;;;16.75;100.00
6694;BME280;3384;42.628;23.380;2022-11-20T01:21:11;93490.59;;;16.68;100.00
6694;BME280;3384;42.628;23.380;2022-11-20T01:23:40;93484.75;;;16.66;100.00
6694;BME280;3384;42.628;23.380;2022-11-20T01:26:09;93481.47;;;16.76;100.00
6694;BME280;3384;42.628;23.380;2022-11-20T01:28:37;93463.22;;;16.73;100.00
6694;BME280;3384;42.628;23.380;2022-11-20T01:31:15;93454.97;;;16.66;100.00
6694;BME280;3384;42.628;23.380;2022-11-20T01:33:43;93454.97;;;16.66;100.00
6694;BME280;3384;42.628;23.380;2022-11-20T01:36:10;93435.63;;;16.45;100.00
6694;BME280;3384;42.628;23.380;2022-11-20T01:38:37;93436.00;;;16.28;100.00
6694;BME280;3384;42.628;23.380;2022-11-20T01:41:05;93444.00;;;16.40;100.00
6694;BME280;3384;42.628;23.380;2022-11-20T01:43:32;93445.44;;;16.72;100.00
6694;BME280;3384;42.628;23.380;2022-11-20T01:46:02;93437.25;;;16.69;100.00
6694;BME280;3384;42.628;23.380;2022-11-20T01:48:36;93440.13;;;16.57;100.00
6694;BME280;3384;42.628;23.380;2022-11-20T01:51:17;93432.50;;;16.43;100.00
6694;BME280;3384;42.628;23.380;2022-11-20T01:53:50;93416.56;;;16.57;100.00
6694;BME280;3384;42.628;23.380;2022-11-20T01:56:22;93433.38;;;16.12;100.00
6694;BME280;3384;42.628;23.380;2022-11-20T01:58:54;93429.09;;;16.11;100.00
6694;BME280;3384;42.628;23.380;2022-11-20T02:01:23;93439.88;;;16.27;100.00
6694;BME280;3384;42.628;23.380;2022-11-20T02:03:52;93412.25;;;15.99;100.00
6694;BME280;3384;42.628;23.380;2022-11-20T02:06:25;93440.63;;;16.08;100.00
6694;BME280;3384;42.628;23.380;2022-11-20T02:08:52;93437.13;;;16.08;100.00
6694;BME280;3384;42.628;23.380;2022-11-20T02:11:22;93460.94;;;16.02;100.00
6694;BME280;3384;42.628;23.380;2022-11-20T02:13:49;93451.38;;;16.24;100.00
6694;BME280;3384;42.628;23.380;2022-11-20T02:16:19;93454.47;;;16.41;100.00
6694;BME280;3384;42.628;23.380;2022-11-20T02:18:48;93450.50;;;16.55;100.00
6694;BME280;3384;42.628;23.380;2022-11-20T02:21:29;93441.81;;;17.06;100.00
6694;BME280;3384;42.628;23.380;2022-11-20T02:24:08;93446.91;;;17.53;100.00
6694;BME280;3384;42.628;23.380;2022-11-20T02:26:47;93448.34;;;17.95;100.00
6694;BME280;3384;42.628;23.380;2022-11-20T02:29:17;93438.63;;;17.94;100.00
6694;BME280;3384;42.628;23.380;2022-11-20T02:31:48;93442.59;;;17.74;100.00
6694;BME280;3384;42.628;23.380;2022-11-20T02:34:15;93455.84;;;17.79;100.00
6694;BME280;3384;42.628;23.380;2022-11-20T02:36:42;93457.63;;;17.68;100.00
6694;BME280;3384;42.628;23.380;2022-11-20T02:39:11;93437.75;;;17.61;100.00
6694;BME280;3384;42.628;23.380;2022-11-20T02:41:42;93448.09;;;17.55;100.00
6694;BME280;3384;42.628;23.380;2022-11-20T02:44:11;93461.66;;;17.55;100.00
6694;BME280;3384;42.628;23.380;2022-11-20T02:46:38;93442.94;;;17.73;100.00
6694;BME280;3384;42.628;23.380;2022-11-20T02:49:05;93466.81;;;17.64;100.00
6694;BME280;3384;42.628;23.380;2022-11-20T02:51:32;93484.38;;;17.47;100.00
6694;BME280;3384;42.628;23.380;2022-11-20T02:53:59;93462.38;;;17.52;100.00
6694;BME280;3384;42.628;23.380;2022-11-20T02:56:28;93472.63;;;17.88;100.00
6694;BME280;3384;42.628;23.380;2022-11-20T02:58:55;93470.03;;;17.95;100.00
6694;BME280;3384;42.628;23.380;2022-11-20T03:01:22;93487.97;;;18.03;100.00
6694;BME280;3384;42.628;23.380;2022-11-20T03:03:48;93490.97;;;17.98;100.00
6694;BME280;3384;42.628;23.380;2022-11-20T03:06:21;93483.91;;;18.16;100.00
6694;BME280;3384;42.628;23.380;2022-11-20T03:08:48;93488.19;;;18.17;100.00
6694;BME280;3384;42.628;23.380;2022-11-20T03:11:18;93487.84;;;18.22;100.00
6694;BME280;3384;42.628;23.380;2022-11-20T03:13:49;93470.97;;;18.06;100.00
6694;BME280;3384;42.628;23.380;2022-11-20T03:16:19;93471.63;;;18.00;100.00
6694;BME280;3384;42.628;23.380;2022-11-20T03:18:46;93481.72;;;17.99;100.00
6694;BME280;3384;42.628;23.380;2022-11-20T03:21:13;93483.31;;;18.04;100.00
6694;BME280;3384;42.628;23.380;2022-11-20T03:23:41;93516.97;;;17.99;100.00
6694;BME280;3384;42.628;23.380;2022-11-20T03:26:09;93498.19;;;18.13;100.00
6694;BME280;3384;42.628;23.380;2022-11-20T03:28:37;93506.72;;;18.15;100.00
6694;BME280;3384;42.628;23.380;2022-11-20T03:31:11;93495.38;;;18.06;100.00
6694;BME280;3384;42.628;23.380;2022-11-20T03:33:38;93496.94;;;18.07;100.00
6694;BME280;3384;42.628;23.380;2022-11-20T03:36:08;93494.25;;;18.11;100.00
6694;BME280;3384;42.628;23.380;2022-11-20T03:38:36;93499.53;;;18.00;100.00
6694;BME280;3384;42.628;23.380;2022-11-20T03:41:05;93499.28;;;18.09;100.00
6694;BME280;3384;42.628;23.380;2022-11-20T03:43:33;93503.56;;;18.10;100.00
6694;BME280;3384;42.628;23.380;2022-11-20T03:46:01;93501.88;;;18.02;100.00
6694;BME280;3384;42.628;23.380;2022-11-20T03:48:29;93491.84;;;18.02;100.00
6694;BME280;3384;42.628;23.380;2022-11-20T03:51:07;93487.25;;;18.06;100.00
6694;BME280;3384;42.628;23.380;2022-11-20T03:53:34;93481.09;;;18.09;100.00
6694;BME280;3384;42.628;23.380;2022-11-20T03:56:01;93500.38;;;18.04;100.00
6694;BME280;3384;42.628;23.380;2022-11-20T03:58:27;93501.63;;;18.10;100.00
6694;BME280;3384;42.628;23.380;2022-11-20T04:00:54;93519.81;;;18.10;100.00
6694;BME280;3384;42.628;23.380;2022-11-20T04:03:21;93516.09;;;18.18;100.00
6694;BME280;3384;42.628;23.380;2022-11-20T04:05:49;93515.31;;;18.17;100.00
6694;BME280;3384;42.628;23.380;2022-11-20T04:08:16;93518.53;;;18.00;100.00
6694;BME280;3384;42.628;23.380;2022-11-20T04:10:43;93508.50;;;18.04;100.00
6694;BME280;3384;42.628;23.380;2022-11-20T04:13:09;93498.19;;;18.13;100.00
6694;BME280;3384;42.628;23.380;2022-11-20T04:15:36;93512.38;;;18.03;100.00
6694;BME280;3384;42.628;23.380;2022-11-20T04:18:03;93520.19;;;17.82;100.00
6694;BME280;3384;42.628;23.380;2022-11-20T04:20:30;93512.28;;;17.96;100.00
6694;BME280;3384;42.628;23.380;2022-11-20T04:22:58;93528.03;;;18.13;100.00
6694;BME280;3384;42.628;23.380;2022-11-20T04:25:25;93521.16;;;17.97;100.00
6694;BME280;3384;42.628;23.380;2022-11-20T04:27:52;93528.66;;;18.03;100.00
6694;BME280;3384;42.628;23.380;2022-11-20T04:30:19;93533.44;;;18.13;100.00
6694;BME280;3384;42.628;23.380;2022-11-20T04:32:45;93546.84;;;18.03;100.00
6694;BME280;3384;42.628;23.380;2022-11-20T04:35:12;93529.69;;;17.95;100.00
6694;BME280;3384;42.628;23.380;2022-11-20T04:37:39;93554.38;;;17.90;100.00
6694;BME280;3384;42.628;23.380;2022-11-20T04:40:08;93540.16;;;17.74;100.00
6694;BME280;3384;42.628;23.380;2022-11-20T04:42:35;93538.25;;;17.75;100.00
6694;BME280;3384;42.628;23.380;2022-11-20T04:45:02;93532.69;;;17.90;100.00
6694;BME280;3384;42.628;23.380;2022-11-20T04:47:29;93527.28;;;17.90;100.00
6694;BME280;3384;42.628;23.380;2022-11-20T04:49:56;93528.25;;;17.79;100.00
6694;BME280;3384;42.628;23.380;2022-11-20T04:52:23;93523.38;;;17.88;100.00
6694;BME280;3384;42.628;23.380;2022-11-20T04:54:50;93528.00;;;17.87;100.00
6694;BME280;3384;42.628;23.380;2022-11-20T04:57:19;93526.00;;;17.84;100.00
6694;BME280;3384;42.628;23.380;2022-11-20T04:59:46;93511.38;;;17.89;100.00
6694;BME280;3384;42.628;23.380;2022-11-20T05:02:13;93514.03;;;17.85;100.00
6694;BME280;3384;42.628;23.380;2022-11-20T05:04:40;93522.69;;;17.94;100.00
6694;BME280;3384;42.628;23.380;2022-11-20T05:07:07;93528.78;;;17.88;100.00
6694;BME280;3384;42.628;23.380;2022-11-20T05:09:33;93519.34;;;17.78;100.00
6694;BME280;3384;42.628;23.380;2022-11-20T05:12:00;93537.91;;;17.35;100.00
6694;BME280;3384;42.628;23.380;2022-11-20T05:14:28;93515.84;;;17.36;100.00
6694;BME280;3384;42.628;23.380;2022-11-20T05:16:55;93499.09;;;17.08;100.00
6694;BME280;3384;42.628;23.380;2022-11-20T05:19:22;93510.13;;;17.19;100.00
6694;BME280;3384;42.628;23.380;2022-11-20T05:21:49;93486.88;;;16.95;100.00
6694;BME280;3384;42.628;23.380;2022-11-20T05:24:16;93486.13;;;16.98;100.00
6694;BME280;3384;42.628;23.380;2022-11-20T05:26:43;93494.91;;;17.11;100.00
6694;BME280;3384;42.628;23.380;2022-11-20T05:29:10;93487.72;;;16.99;100.00
6694;BME280;3384;42.628;23.380;2022-11-20T05:31:41;93494.56;;;16.93;100.00
6694;BME280;3384;42.628;23.380;2022-11-20T05:34:08;93491.88;;;16.74;100.00
6694;BME280;3384;42.628;23.380;2022-11-20T05:36:35;93491.00;;;16.89;100.00
6694;BME280;3384;42.628;23.380;2022-11-20T05:39:02;93501.47;;;16.91;100.00
6694;BME280;3384;42.628;23.380;2022-11-20T05:41:28;93485.94;;;16.69;100.00
6694;BME280;3384;42.628;23.380;2022-11-20T05:43:56;93493.72;;;16.51;100.00
6694;BME280;3384;42.628;23.380;2022-11-20T05:46:24;93479.97;;;16.60;100.00
6694;BME280;3384;42.628;23.380;2022-11-20T05:48:52;93486.03;;;16.37;100.00
6694;BME280;3384;42.628;23.380;2022-11-20T05:51:19;93486.41;;;16.52;100.00
6694;BME280;3384;42.628;23.380;2022-11-20T05:53:46;93477.06;;;16.68;100.00
6694;BME280;3384;42.628;23.380;2022-11-20T05:56:15;93460.09;;;16.52;100.00
6694;BME280;3384;42.628;23.380;2022-11-20T05:58:42;93472.66;;;16.25;100.00
6694;BME280;3384;42.628;23.380;2022-11-20T06:01:11;93470.81;;;16.29;100.00
6694;BME280;3384;42.628;23.380;2022-11-20T06:03:39;93485.59;;;16.51;100.00
6694;BME280;3384;42.628;23.380;2022-11-20T06:06:09;93472.31;;;16.27;100.00
6694;BME280;3384;42.628;23.380;2022-11-20T06:08:35;93481.53;;;16.07;100.00
6694;BME280;3384;42.628;23.380;2022-11-20T06:11:04;93476.16;;;16.26;100.00
6694;BME280;3384;42.628;23.380;2022-11-20T06:13:31;93478.63;;;16.50;100.00
6694;BME280;3384;42.628;23.380;2022-11-20T06:15:58;93480.41;;;16.42;100.00
6694;BME280;3384;42.628;23.380;2022-11-20T06:18:25;93475.78;;;16.62;100.00
6694;BME280;3384;42.628;23.380;2022-11-20T06:20:59;93488.16;;;16.63;100.00
6694;BME280;3384;42.628;23.380;2022-11-20T06:23:29;93473.56;;;16.68;100.00
6694;BME280;3384;42.628;23.380;2022-11-20T06:25:56;93513.38;;;16.67;100.00
6694;BME280;3384;42.628;23.380;2022-11-20T06:28:23;93497.44;;;16.43;100.00
6694;BME280;3384;42.628;23.380;2022-11-20T06:30:49;93522.75;;;16.73;100.00
6694;BME280;3384;42.628;23.380;2022-11-20T06:33:16;93501.84;;;16.51;100.00
6694;BME280;3384;42.628;23.380;2022-11-20T06:35:43;93502.84;;;16.62;100.00
6694;BME280;3384;42.628;23.380;2022-11-20T06:38:10;93504.75;;;16.62;100.00
6694;BME280;3384;42.628;23.380;2022-11-20T06:40:41;93512.78;;;16.77;100.00
6694;BME280;3384;42.628;23.380;2022-11-20T06:43:08;93511.59;;;16.75;100.00
6694;BME280;3384;42.628;23.380;2022-11-20T06:45:34;93500.00;;;16.74;100.00
6694;BME280;3384;42.628;23.380;2022-11-20T06:48:01;93496.69;;;16.84;100.00
6694;BME280;3384;42.628;23.380;2022-11-20T06:50:28;93516.47;;;17.07;100.00
6694;BME280;3384;42.628;23.380;2022-11-20T06:52:55;93497.97;;;16.90;100.00
6694;BME280;3384;42.628;23.380;2022-11-20T06:55:22;93523.31;;;17.01;100.00
6694;BME280;3384;42.628;23.380;2022-11-20T06:57:52;93516.22;;;17.12;100.00
6694;BME280;3384;42.628;23.380;2022-11-20T07:00:33;93514.34;;;17.16;100.00
6694;BME280;3384;42.628;23.380;2022-11-20T07:03:02;93536.31;;;16.92;100.00
6694;BME280;3384;42.628;23.380;2022-11-20T07:05:29;93537.88;;;16.93;100.00
6694;BME280;3384;42.628;23.380;2022-11-20T07:07:57;93517.84;;;16.98;100.00
6694;BME280;3384;42.628;23.380;2022-11-20T07:10:24;93527.88;;;17.16;100.00
6694;BME280;3384;42.628;23.380;2022-11-20T07:12:53;93521.69;;;17.16;100.00
6694;BME280;3384;42.628;23.380;2022-11-20T07:15:22;93537.13;;;17.34;100.00
6694;BME280;3384;42.628;23.380;2022-11-20T07:17:50;93534.38;;;17.12;100.00
6694;BME280;3384;42.628;23.380;2022-11-20T07:20:17;93525.44;;;17.30;100.00
6694;BME280;3384;42.628;23.380;2022-11-20T07:22:45;93543.03;;;17.21;100.00
6694;BME280;3384;42.628;23.380;2022-11-20T07:25:11;93540.22;;;17.36;100.00
6694;BME280;3384;42.628;23.380;2022-11-20T07:27:39;93530.72;;;17.23;100.00
6694;BME280;3384;42.628;23.380;2022-11-20T07:30:08;93542.41;;;17.08;100.00
6694;BME280;3384;42.628;23.380;2022-11-20T07:32:36;93547.59;;;17.17;100.00
6694;BME280;3384;42.628;23.380;2022-11-20T07:35:03;93577.25;;;17.29;100.00
6694;BME280;3384;42.628;23.380;2022-11-20T07:37:33;93535.97;;;17.54;100.00
6694;BME280;3384;42.628;23.380;2022-11-20T07:40:00;93536.50;;;17.22;100.00
6694;BME280;3384;42.628;23.380;2022-11-20T07:42:28;93518.56;;;17.36;100.00
6694;BME280;3384;42.628;23.380;2022-11-20T07:44:54;93553.41;;;17.57;100.00
6694;BME280;3384;42.628;23.380;2022-11-20T07:47:23;93534.69;;;17.29;100.00
6694;BME280;3384;42.628;23.380;2022-11-20T07:49:50;93530.00;;;17.26;100.00
6694;BME280;3384;42.628;23.380;2022-11-20T07:52:17;93534.06;;;17.36;100.00
6694;BME280;3384;42.628;23.380;2022-11-20T07:54:44;93538.84;;;17.04;100.00
6694;BME280;3384;42.628;23.380;2022-11-20T07:57:11;93545.38;;;17.22;100.00
6694;BME280;3384;42.628;23.380;2022-11-20T07:59:47;93539.25;;;17.25;100.00
6694;BME280;3384;42.628;23.380;2022-11-20T08:02:14;93567.72;;;17.16;100.00
6694;BME280;3384;42.628;23.380;2022-11-20T08:04:42;93555.44;;;17.22;100.00
6694;BME280;3384;42.628;23.380;2022-11-20T08:07:09;93541.69;;;17.30;100.00
6694;BME280;3384;42.628;23.380;2022-11-20T08:09:35;93535.84;;;17.28;100.00
6694;BME280;3384;42.628;23.380;2022-11-20T08:12:02;93541.81;;;17.37;100.00
6694;BME280;3384;42.628;23.380;2022-11-20T08:14:47;93527.28;;;17.45;100.00
6694;BME280;3384;42.628;23.380;2022-11-20T08:17:24;93531.13;;;17.44;100.00
6694;BME280;3384;42.628;23.380;2022-11-20T08:19:52;93517.34;;;17.53;100.00
6694;BME280;3384;42.628;23.380;2022-11-20T08:22:19;93530.53;;;17.77;100.00
6694;BME280;3384;42.628;23.380;2022-11-20T08:24:46;93524.13;;;17.66;100.00
6694;BME280;3384;42.628;23.380;2022-11-20T08:27:14;93524.31;;;17.76;100.00
6694;BME280;3384;42.628;23.380;2022-11-20T08:29:45;93545.53;;;17.71;100.00
6694;BME280;3384;42.628;23.380;2022-11-20T08:32:12;93548.03;;;17.83;100.00
6694;BME280;3384;42.628;23.380;2022-11-20T08:34:39;93552.22;;;17.99;100.00
6694;BME280;3384;42.628;23.380;2022-11-20T08:37:07;93557.06;;;17.87;100.00
6694;BME280;3384;42.628;23.380;2022-11-20T08:39:37;93558.66;;;17.91;100.00
6694;BME280;3384;42.628;23.380;2022-11-20T08:42:06;93540.69;;;18.06;100.00
6694;BME280;3384;42.628;23.380;2022-11-20T08:44:33;93562.03;;;17.85;100.00
6694;BME280;3384;42.628;23.380;2022-11-20T08:47:00;93567.09;;;17.86;100.00
6694;BME280;3384;42.628;23.380;2022-11-20T08:49:27;93591.91;;;18.11;100.00
6694;BME280;3384;42.628;23.380;2022-11-20T08:51:54;93588.59;;;17.98;100.00
6694;BME280;3384;42.628;23.380;2022-11-20T08:54:22;93582.22;;;17.87;100.00
6694;BME280;3384;42.628;23.380;2022-11-20T08:56:51;93590.53;;;17.98;100.00
6694;BME280;3384;42.628;23.380;2022-11-20T08:59:18;93589.47;;;17.80;100.00
6694;BME280;3384;42.628;23.380;2022-11-20T09:01:46;93582.31;;;17.94;100.00
6694;BME280;3384;42.628;23.380;2022-11-20T09:04:13;93592.53;;;17.78;100.00
6694;BME280;3384;42.628;23.380;2022-11-20T09:06:40;93585.25;;;17.82;100.00
6694;BME280;3384;42.628;23.380;2022-11-20T09:09:07;93586.66;;;17.76;100.00
6694;BME280;3384;42.628;23.380;2022-11-20T09:11:38;93585.94;;;17.79;100.00
6694;BME280;3384;42.628;23.380;2022-11-20T09:14:05;93578.72;;;17.64;100.00
6694;BME280;3384;42.628;23.380;2022-11-20T09:16:32;93581.41;;;17.42;100.00
6694;BME280;3384;42.628;23.380;2022-11-20T09:18:59;93583.88;;;17.31;100.00
6694;BME280;3384;42.628;23.380;2022-11-20T09:21:25;93580.78;;;17.52;100.00
6694;BME280;3384;42.628;23.380;2022-11-20T09:23:52;93580.44;;;17.53;100.00
6694;BME280;3384;42.628;23.380;2022-11-20T09:26:19;93585.09;;;17.53;100.00
6694;BME280;3384;42.628;23.380;2022-11-20T09:28:47;93598.44;;;17.23;100.00
6694;BME280;3384;42.628;23.380;2022-11-20T09:31:21;93572.63;;;17.10;100.00
6694;BME280;3384;42.628;23.380;2022-11-20T09:33:54;93573.47;;;17.14;100.00
6694;BME280;3384;42.628;23.380;2022-11-20T09:36:21;93568.13;;;16.99;100.00
6694;BME280;3384;42.628;23.380;2022-11-20T09:38:48;93566.13;;;17.53;100.00
6694;BME280;3384;42.628;23.380;2022-11-20T09:41:38;93559.44;;;17.47;100.00
6694;BME280;3384;42.628;23.380;2022-11-20T09:44:24;93558.06;;;17.18;100.00
6694;BME280;3384;42.628;23.380;2022-11-20T09:46:58;93567.00;;;17.19;100.00
6694;BME280;3384;42.628;23.380;2022-11-20T09:49:39;93573.78;;;17.47;100.00
6694;BME280;3384;42.628;23.380;2022-11-20T09:52:30;93550.03;;;17.03;100.00
6694;BME280;3384;42.628;23.380;2022-11-20T09:55:03;93559.66;;;17.00;100.00
6694;BME280;3384;42.628;23.380;2022-11-20T09:57:34;93543.22;;;16.90;100.00
6694;BME280;3384;42.628;23.380;2022-11-20T10:00:08;93555.31;;;16.77;100.00
6694;BME280;3384;42.628;23.380;2022-11-20T10:02:41;93541.50;;;17.01;100.00
6694;BME280;3384;42.628;23.380;2022-11-20T10:05:12;93547.25;;;16.80;100.00
6694;BME280;3384;42.628;23.380;2022-11-20T10:07:45;93565.09;;;17.19;100.00
6694;BME280;3384;42.628;23.380;2022-11-20T10:10:43;93547.69;;;17.20;100.00
6694;BME280;3384;42.628;23.380;2022-11-20T10:13:38;93524.59;;;17.26;100.00
6694;BME280;3384;42.628;23.380;2022-11-20T10:16:17;93525.44;;;17.30;100.00
6694;BME280;3384;42.628;23.380;2022-11-20T10:19:09;93529.13;;;17.22;100.00
6694;BME280;3384;42.628;23.380;2022-11-20T10:21:55;93532.59;;;17.00;100.00
6694;BME280;3384;42.628;23.380;2022-11-20T10:24:35;93516.84;;;17.06;100.00
6694;BME280;3384;42.628;23.380;2022-11-20T10:27:19;93510.88;;;16.97;100.00
6694;BME280;3384;42.628;23.380;2022-11-20T10:30:03;93520.78;;;16.89;100.00
6694;BME280;3384;42.628;23.380;2022-11-20T10:32:38;93504.13;;;16.68;100.00
6694;BME280;3384;42.628;23.380;2022-11-20T10:35:16;93518.66;;;16.79;100.00
6694;BME280;3384;42.628;23.380;2022-11-20T10:37:48;93521.34;;;16.79;100.00
6694;BME280;3384;42.628;23.380;2022-11-20T10:40:22;93522.28;;;16.68;100.00
6694;BME280;3384;42.628;23.380;2022-11-20T10:42:55;93513.66;;;16.43;100.00
6694;BME280;3384;42.628;23.380;2022-11-20T10:45:36;93519.59;;;16.33;100.00
6694;BME280;3384;42.628;23.380;2022-11-20T10:48:12;93520.06;;;16.54;100.00
6694;BME280;3384;42.628;23.380;2022-11-20T10:50:49;93501.03;;;16.51;100.00
6694;BME280;3384;42.628;23.380;2022-11-20T10:53:33;93528.19;;;16.04;100.00
6694;BME280;3384;42.628;23.380;2022-11-20T10:56:17;93530.09;;;16.19;100.00
6694;BME280;3384;42.628;23.380;2022-11-20T10:58:52;93526.69;;;16.41;100.00
6694;BME280;3384;42.628;23.380;2022-11-20T11:01:26;93522.44;;;16.40;100.00
6694;BME280;3384;42.628;23.380;2022-11-20T11:03:59;93549.41;;;15.71;100.00
6694;BME280;3384;42.628;23.380;2022-11-20T11:06:31;93555.66;;;15.90;100.00
6694;BME280;3384;42.628;23.380;2022-11-20T11:09:10;93551.06;;;15.75;100.00
6694;BME280;3384;42.628;23.380;2022-11-20T11:11:41;93570.31;;;15.43;100.00
6694;BME280;3384;42.628;23.380;2022-11-20T11:14:11;93583.91;;;15.93;100.00
6694;BME280;3384;42.628;23.380;2022-11-20T11:16:49;93588.78;;;15.72;100.00
6694;BME280;3384;42.628;23.380;2022-11-20T11:19:16;93605.09;;;15.60;100.00
6694;BME280;3384;42.628;23.380;2022-11-20T11:21:46;93635.16;;;15.58;100.00
6694;BME280;3384;42.628;23.380;2022-11-20T11:24:20;93598.41;;;15.42;100.00
6694;BME280;3384;42.628;23.380;2022-11-20T11:26:52;93568.03;;;15.45;100.00
6694;BME280;3384;42.628;23.380;2022-11-20T11:29:20;93569.50;;;15.42;100.00
6694;BME280;3384;42.628;23.380;2022-11-20T11:31:48;93569.16;;;15.01;100.00
6694;BME280;3384;42.628;23.380;2022-11-20T11:34:16;93578.81;;;15.02;100.00
6694;BME280;3384;42.628;23.380;2022-11-20T11:36:57;93586.50;;;14.88;100.00
6694;BME280;3384;42.628;23.380;2022-11-20T11:39:26;93607.53;;;15.10;100.00
6694;BME280;3384;42.628;23.380;2022-11-20T11:41:53;93604.31;;;15.04;100.00
6694;BME280;3384;42.628;23.380;2022-11-20T11:44:21;93608.69;;;15.09;100.00
6694;BME280;3384;42.628;23.380;2022-11-20T11:47:22;93598.41;;;14.35;100.00
6694;BME280;3384;42.628;23.380;2022-11-20T11:50:01;93590.00;;;14.37;100.00
6694;BME280;3384;42.628;23.380;2022-11-20T11:52:38;93605.38;;;14.48;100.00
6694;BME280;3384;42.628;23.380;2022-11-20T11:55:09;93588.19;;;14.53;100.00
6694;BME280;3384;42.628;23.380;2022-11-20T11:57:47;93580.44;;;14.51;100.00
6694;BME280;3384;42.628;23.380;2022-11-20T12:00:17;93548.47;;;14.65;100.00
6694;BME280;3384;42.628;23.380;2022-11-20T12:02:56;93541.56;;;15.07;100.00
6694;BME280;3384;42.628;23.380;2022-11-20T12:05:27;93545.91;;;14.84;100.00
6694;BME280;3384;42.628;23.380;2022-11-20T12:07:58;93551.59;;;14.67;100.00
6694;BME280;3384;42.628;23.380;2022-11-20T12:10:39;93548.75;;;14.48;100.00
6694;BME280;3384;42.628;23.380;2022-11-20T12:13:32;93558.38;;;14.89;100.00
6694;BME280;3384;42.628;23.380;2022-11-20T12:16:03;93550.88;;;15.10;100.00
6694;BME280;3384;42.628;23.380;2022-11-20T12:18:32;93569.03;;;14.97;100.00
6694;BME280;3384;42.628;23.380;2022-11-20T12:21:07;93561.75;;;14.86;100.00
6694;BME280;3384;42.628;23.380;2022-11-20T12:23:44;93584.34;;;14.93;100.00
6694;BME280;3384;42.628;23.380;2022-11-20T12:26:32;93554.22;;;14.52;100.00
6694;BME280;3384;42.628;23.380;2022-11-20T12:29:09;93557.59;;;14.61;100.00
6694;BME280;3384;42.628;23.380;2022-11-20T12:31:53;93565.97;;;14.20;100.00
6694;BME280;3384;42.628;23.380;2022-11-20T12:34:39;93586.72;;;14.43;100.00
6694;BME280;3384;42.628;23.380;2022-11-20T12:37:15;93573.03;;;14.48;100.00
6694;BME280;3384;42.628;23.380;2022-11-20T12:39:48;93547.28;;;14.51;100.00
6694;BME280;3384;42.628;23.380;2022-11-20T12:42:31;93520.03;;;14.28;100.00
6694;BME280;3384;42.628;23.380;2022-11-20T12:45:34;93474.72;;;13.94;100.00
6694;BME280;3384;42.628;23.380;2022-11-20T12:48:27;93477.28;;;14.03;100.00
6694;BME280;3384;42.628;23.380;2022-11-20T12:51:18;93481.00;;;13.98;100.00
6694;BME280;3384;42.628;23.380;2022-11-20T12:54:00;93469.94;;;14.15;100.00
6694;BME280;3384;42.628;23.380;2022-11-20T12:56:40;93468.59;;;14.21;100.00
6694;BME280;3384;42.628;23.380;2022-11-20T12:59:23;93458.50;;;14.18;100.00
6694;BME280;3384;42.628;23.380;2022-11-20T13:01:58;93460.84;;;14.32;100.00
6694;BME280;3384;42.628;23.380;2022-11-20T13:04:43;93422.59;;;14.42;100.00
6694;BME280;3384;42.628;23.380;2022-11-20T13:07:16;93439.72;;;14.61;100.00
6694;BME280;3384;42.628;23.380;2022-11-20T13:09:45;93438.00;;;14.84;100.00
6694;BME280;3384;42.628;23.380;2022-11-20T13:12:17;93447.25;;;14.99;100.00
6694;BME280;3384;42.628;23.380;2022-11-20T13:14:55;93452.84;;;15.21;100.00
6694;BME280;3384;42.628;23.380;2022-11-20T13:17:30;93479.03;;;14.62;100.00
6694;BME280;3384;42.628;23.380;2022-11-20T13:20:02;93485.63;;;14.77;100.00